Vesljana, Russia
Current Conditions -  °F | °C
As of 7:00 AM on Thursday 23 Oct 2014 (Local Time) from UUYY Reporting Station
Heavy Snow Heavy Snow  
Wind Chill:   Ceiling: 500
Heat Index: 16°   Visibility: 0.37mi
Dew Point: 12°   Wind: 16mph
Humidity: 86%   Direction: 20°NNE
Pressure: 29.85"   Gusts: NA
Location:  62.98°N, 50.9°E
Report Text: UUYY 230400Z 02007MPS 0600 R01/0600N +SN VV005 M09/M11 Q1011 NOSIG 0149//41 RMK QFE749/0999
Loading
Personal Weather Stations






























Interactive Weather Map
Tropical Storm Tracking
New forecast layout! Learn more

10-Day Weather Forecast

Advertisements
Track Severe Weather on mobile